sensor_id;sensor_type;location;lat;lon;timestamp;temperature;humidity
71082;SHT31;58740;50.672;18.690;2022-09-09T00:00:55;19.30;78.43
71082;SHT31;58740;50.672;18.690;2022-09-09T00:06:55;19.26;78.40
71082;SHT31;58740;50.672;18.690;2022-09-09T00:22:23;19.09;78.50
71082;SHT31;58740;50.672;18.690;2022-09-09T00:24:46;19.06;78.59
71082;SHT31;58740;50.672;18.690;2022-09-09T00:30:17;19.02;78.69
71082;SHT31;58740;50.672;18.690;2022-09-09T00:32:54;19.00;78.66
71082;SHT31;58740;50.672;18.690;2022-09-09T00:35:28;18.99;78.61
71082;SHT31;58740;50.672;18.690;2022-09-09T00:38:02;18.98;78.61
71082;SHT31;58740;50.672;18.690;2022-09-09T00:43:56;18.92;78.58
71082;SHT31;58740;50.672;18.690;2022-09-09T00:49:49;18.88;78.42
71082;SHT31;58740;50.672;18.690;2022-09-09T00:55:45;18.83;78.45
71082;SHT31;58740;50.672;18.690;2022-09-09T00:58:32;18.82;78.41
71082;SHT31;58740;50.672;18.690;2022-09-09T01:01:10;18.82;78.43
71082;SHT31;58740;50.672;18.690;2022-09-09T01:03:52;18.82;78.50
71082;SHT31;58740;50.672;18.690;2022-09-09T01:12:16;18.78;78.72
71082;SHT31;58740;50.672;18.690;2022-09-09T01:14:58;18.76;78.78
71082;SHT31;58740;50.672;18.690;2022-09-09T01:18:21;18.75;78.79
71082;SHT31;58740;50.672;18.690;2022-09-09T01:26:52;18.77;78.85
71082;SHT31;58740;50.672;18.690;2022-09-09T01:29:26;18.74;78.91
71082;SHT31;58740;50.672;18.690;2022-09-09T01:31:55;18.74;78.96
71082;SHT31;58740;50.672;18.690;2022-09-09T01:34:27;18.75;78.99
71082;SHT31;58740;50.672;18.690;2022-09-09T01:39:38;18.75;79.05
71082;SHT31;58740;50.672;18.690;2022-09-09T01:42:12;18.73;79.15
71082;SHT31;58740;50.672;18.690;2022-09-09T01:44:43;18.75;79.19
71082;SHT31;58740;50.672;18.690;2022-09-09T01:47:10;18.77;79.14
71082;SHT31;58740;50.672;18.690;2022-09-09T01:49:38;18.79;79.14
71082;SHT31;58740;50.672;18.690;2022-09-09T01:52:06;18.80;79.23
71082;SHT31;58740;50.672;18.690;2022-09-09T01:54:35;18.83;79.19
71082;SHT31;58740;50.672;18.690;2022-09-09T01:57:08;18.85;79.09
71082;SHT31;58740;50.672;18.690;2022-09-09T02:05:40;18.84;79.10
71082;SHT31;58740;50.672;18.690;2022-09-09T02:08:19;18.83;79.17
71082;SHT31;58740;50.672;18.690;2022-09-09T02:10:58;18.83;79.16
71082;SHT31;58740;50.672;18.690;2022-09-09T02:13:48;18.82;79.21
71082;SHT31;58740;50.672;18.690;2022-09-09T02:16:32;18.82;79.16
71082;SHT31;58740;50.672;18.690;2022-09-09T02:19:39;18.83;79.11
71082;SHT31;58740;50.672;18.690;2022-09-09T02:22:19;18.83;79.06
71082;SHT31;58740;50.672;18.690;2022-09-09T02:24:51;18.82;78.93
71082;SHT31;58740;50.672;18.690;2022-09-09T02:27:24;18.80;78.96
71082;SHT31;58740;50.672;18.690;2022-09-09T02:29:53;18.76;78.92
71082;SHT31;58740;50.672;18.690;2022-09-09T02:32:26;18.76;78.88
71082;SHT31;58740;50.672;18.690;2022-09-09T02:35:00;18.76;78.88
71082;SHT31;58740;50.672;18.690;2022-09-09T02:37:38;18.75;78.83
71082;SHT31;58740;50.672;18.690;2022-09-09T02:40:09;18.73;78.71
71082;SHT31;58740;50.672;18.690;2022-09-09T02:42:41;18.70;78.69
71082;SHT31;58740;50.672;18.690;2022-09-09T02:45:12;18.67;78.64
71082;SHT31;58740;50.672;18.690;2022-09-09T02:47:59;18.61;78.67
71082;SHT31;58740;50.672;18.690;2022-09-09T02:50:54;18.57;78.61
71082;SHT31;58740;50.672;18.690;2022-09-09T02:53:43;18.53;78.60
71082;SHT31;58740;50.672;18.690;2022-09-09T02:56:51;18.49;78.60
71082;SHT31;58740;50.672;18.690;2022-09-09T02:59:21;18.45;78.59
71082;SHT31;58740;50.672;18.690;2022-09-09T03:01:52;18.42;78.50
71082;SHT31;58740;50.672;18.690;2022-09-09T03:04:20;18.37;78.51
71082;SHT31;58740;50.672;18.690;2022-09-09T03:06:48;18.31;78.44
71082;SHT31;58740;50.672;18.690;2022-09-09T03:09:16;18.26;78.44
71082;SHT31;58740;50.672;18.690;2022-09-09T03:11:44;18.21;78.49
71082;SHT31;58740;50.672;18.690;2022-09-09T03:14:11;18.16;78.44
71082;SHT31;58740;50.672;18.690;2022-09-09T03:16:40;18.11;78.49
71082;SHT31;58740;50.672;18.690;2022-09-09T03:19:09;18.07;78.51
71082;SHT31;58740;50.672;18.690;2022-09-09T03:21:37;18.04;78.48
71082;SHT31;58740;50.672;18.690;2022-09-09T03:24:04;18.02;78.38
71082;SHT31;58740;50.672;18.690;2022-09-09T03:26:33;18.01;78.39
71082;SHT31;58740;50.672;18.690;2022-09-09T03:29:01;17.99;78.37
71082;SHT31;58740;50.672;18.690;2022-09-09T03:31:29;17.96;78.30
71082;SHT31;58740;50.672;18.690;2022-09-09T03:33:57;17.91;78.37
71082;SHT31;58740;50.672;18.690;2022-09-09T03:36:25;17.88;78.39
71082;SHT31;58740;50.672;18.690;2022-09-09T03:38:54;17.85;78.32
71082;SHT31;58740;50.672;18.690;2022-09-09T03:41:22;17.83;78.24
71082;SHT31;58740;50.672;18.690;2022-09-09T03:43:51;17.80;78.22
71082;SHT31;58740;50.672;18.690;2022-09-09T03:46:20;17.78;78.18
71082;SHT31;58740;50.672;18.690;2022-09-09T03:48:50;17.75;78.14
71082;SHT31;58740;50.672;18.690;2022-09-09T03:51:21;17.70;78.06
71082;SHT31;58740;50.672;18.690;2022-09-09T03:53:49;17.67;78.13
71082;SHT31;58740;50.672;18.690;2022-09-09T03:56:17;17.64;78.02
71082;SHT31;58740;50.672;18.690;2022-09-09T03:58:45;17.62;78.09
71082;SHT31;58740;50.672;18.690;2022-09-09T04:01:12;17.58;78.09
71082;SHT31;58740;50.672;18.690;2022-09-09T04:03:42;17.55;78.00
71082;SHT31;58740;50.672;18.690;2022-09-09T04:06:10;17.52;77.84
71082;SHT31;58740;50.672;18.690;2022-09-09T04:08:40;17.47;77.87
71082;SHT31;58740;50.672;18.690;2022-09-09T04:11:09;17.40;78.09
71082;SHT31;58740;50.672;18.690;2022-09-09T04:13:37;17.39;78.11
71082;SHT31;58740;50.672;18.690;2022-09-09T04:16:09;17.37;78.15
71082;SHT31;58740;50.672;18.690;2022-09-09T04:18:38;17.33;78.10
71082;SHT31;58740;50.672;18.690;2022-09-09T04:21:07;17.29;78.18
71082;SHT31;58740;50.672;18.690;2022-09-09T04:23:37;17.23;78.18
71082;SHT31;58740;50.672;18.690;2022-09-09T04:26:05;17.22;78.21
71082;SHT31;58740;50.672;18.690;2022-09-09T04:28:34;17.19;78.19
71082;SHT31;58740;50.672;18.690;2022-09-09T04:31:07;17.18;78.13
71082;SHT31;58740;50.672;18.690;2022-09-09T04:33:41;17.19;78.27
71082;SHT31;58740;50.672;18.690;2022-09-09T04:36:09;17.20;78.23
71082;SHT31;58740;50.672;18.690;2022-09-09T04:38:37;17.18;78.25
71082;SHT31;58740;50.672;18.690;2022-09-09T04:41:05;17.18;78.48
71082;SHT31;58740;50.672;18.690;2022-09-09T04:43:34;17.18;78.39
71082;SHT31;58740;50.672;18.690;2022-09-09T04:46:02;17.15;78.41
71082;SHT31;58740;50.672;18.690;2022-09-09T04:48:31;17.14;78.43
71082;SHT31;58740;50.672;18.690;2022-09-09T04:51:03;17.14;78.47
71082;SHT31;58740;50.672;18.690;2022-09-09T04:53:33;17.13;78.42
71082;SHT31;58740;50.672;18.690;2022-09-09T04:58:40;17.22;78.86
71082;SHT31;58740;50.672;18.690;2022-09-09T05:01:11;17.24;78.77
71082;SHT31;58740;50.672;18.690;2022-09-09T05:03:46;17.25;78.81
71082;SHT31;58740;50.672;18.690;2022-09-09T05:06:15;17.29;78.72
71082;SHT31;58740;50.672;18.690;2022-09-09T05:08:45;17.31;78.73
71082;SHT31;58740;50.672;18.690;2022-09-09T05:13:51;17.35;78.73
71082;SHT31;58740;50.672;18.690;2022-09-09T05:16:20;17.37;78.73
71082;SHT31;58740;50.672;18.690;2022-09-09T05:18:50;17.39;78.78
71082;SHT31;58740;50.672;18.690;2022-09-09T05:21:19;17.43;78.65
71082;SHT31;58740;50.672;18.690;2022-09-09T05:23:49;17.44;78.61
71082;SHT31;58740;50.672;18.690;2022-09-09T05:26:19;17.48;78.66
71082;SHT31;58740;50.672;18.690;2022-09-09T05:28:48;17.51;78.59
71082;SHT31;58740;50.672;18.690;2022-09-09T05:31:17;17.55;78.62
71082;SHT31;58740;50.672;18.690;2022-09-09T05:33:47;17.59;78.66
71082;SHT31;58740;50.672;18.690;2022-09-09T05:36:17;17.64;78.61
71082;SHT31;58740;50.672;18.690;2022-09-09T05:38:48;17.68;78.51
71082;SHT31;58740;50.672;18.690;2022-09-09T05:41:17;17.76;78.35
71082;SHT31;58740;50.672;18.690;2022-09-09T05:43:45;17.84;78.29
71082;SHT31;58740;50.672;18.690;2022-09-09T05:46:17;17.93;78.33
71082;SHT31;58740;50.672;18.690;2022-09-09T05:48:49;18.04;78.20
71082;SHT31;58740;50.672;18.690;2022-09-09T05:51:20;18.15;78.10
71082;SHT31;58740;50.672;18.690;2022-09-09T05:53:53;18.24;78.08
71082;SHT31;58740;50.672;18.690;2022-09-09T05:56:28;18.33;77.80
71082;SHT31;58740;50.672;18.690;2022-09-09T05:58:56;18.42;77.63
71082;SHT31;58740;50.672;18.690;2022-09-09T06:01:31;18.50;77.61
71082;SHT31;58740;50.672;18.690;2022-09-09T06:04:02;18.58;77.33
71082;SHT31;58740;50.672;18.690;2022-09-09T06:06:31;18.64;77.26
71082;SHT31;58740;50.672;18.690;2022-09-09T06:09:04;18.70;77.28
71082;SHT31;58740;50.672;18.690;2022-09-09T06:11:38;18.74;76.91
71082;SHT31;58740;50.672;18.690;2022-09-09T06:14:06;18.79;76.78
71082;SHT31;58740;50.672;18.690;2022-09-09T06:16:35;18.83;76.60
71082;SHT31;58740;50.672;18.690;2022-09-09T06:19:05;18.87;76.24
71082;SHT31;58740;50.672;18.690;2022-09-09T06:21:34;18.92;76.23
71082;SHT31;58740;50.672;18.690;2022-09-09T06:24:04;18.99;76.10
71082;SHT31;58740;50.672;18.690;2022-09-09T06:26:35;19.05;76.01
71082;SHT31;58740;50.672;18.690;2022-09-09T06:29:08;19.11;75.75
71082;SHT31;58740;50.672;18.690;2022-09-09T06:31:37;19.15;75.16
71082;SHT31;58740;50.672;18.690;2022-09-09T06:34:06;19.17;75.36
71082;SHT31;58740;50.672;18.690;2022-09-09T06:36:37;19.24;75.49
71082;SHT31;58740;50.672;18.690;2022-09-09T06:39:06;19.30;75.29
71082;SHT31;58740;50.672;18.690;2022-09-09T06:41:41;19.36;75.14
71082;SHT31;58740;50.672;18.690;2022-09-09T06:44:10;19.42;75.03
71082;SHT31;58740;50.672;18.690;2022-09-09T06:46:39;19.47;74.64
71082;SHT31;58740;50.672;18.690;2022-09-09T06:49:07;19.52;74.68
71082;SHT31;58740;50.672;18.690;2022-09-09T06:51:37;19.56;74.53
71082;SHT31;58740;50.672;18.690;2022-09-09T06:54:11;19.57;74.01
71082;SHT31;58740;50.672;18.690;2022-09-09T06:56:40;19.58;74.07
71082;SHT31;58740;50.672;18.690;2022-09-09T06:59:10;19.63;74.18
71082;SHT31;58740;50.672;18.690;2022-09-09T07:01:40;19.68;74.01
71082;SHT31;58740;50.672;18.690;2022-09-09T07:04:21;19.72;73.67
71082;SHT31;58740;50.672;18.690;2022-09-09T07:06:49;19.75;73.31
71082;SHT31;58740;50.672;18.690;2022-09-09T07:09:17;19.80;73.44
71082;SHT31;58740;50.672;18.690;2022-09-09T07:11:46;19.83;73.17
71082;SHT31;58740;50.672;18.690;2022-09-09T07:14:16;19.89;72.99
71082;SHT31;58740;50.672;18.690;2022-09-09T07:16:44;19.97;72.98
71082;SHT31;58740;50.672;18.690;2022-09-09T07:19:13;20.05;72.70
71082;SHT31;58740;50.672;18.690;2022-09-09T07:21:41;20.14;72.80
71082;SHT31;58740;50.672;18.690;2022-09-09T07:24:10;20.19;72.63
71082;SHT31;58740;50.672;18.690;2022-09-09T07:26:40;20.24;72.73
71082;SHT31;58740;50.672;18.690;2022-09-09T07:29:08;20.29;72.63
71082;SHT31;58740;50.672;18.690;2022-09-09T07:31:37;20.35;72.84
71082;SHT31;58740;50.672;18.690;2022-09-09T07:34:07;20.42;72.52
71082;SHT31;58740;50.672;18.690;2022-09-09T07:36:36;20.48;72.22
71082;SHT31;58740;50.672;18.690;2022-09-09T07:39:10;20.55;71.98
71082;SHT31;58740;50.672;18.690;2022-09-09T07:41:41;20.60;72.23
71082;SHT31;58740;50.672;18.690;2022-09-09T07:44:13;20.66;72.06
71082;SHT31;58740;50.672;18.690;2022-09-09T07:46:43;20.69;71.92
71082;SHT31;58740;50.672;18.690;2022-09-09T07:49:13;20.74;71.52
71082;SHT31;58740;50.672;18.690;2022-09-09T07:51:42;20.81;71.42
71082;SHT31;58740;50.672;18.690;2022-09-09T07:54:14;20.87;71.07
71082;SHT31;58740;50.672;18.690;2022-09-09T07:56:47;20.94;71.63
71082;SHT31;58740;50.672;18.690;2022-09-09T07:59:16;21.00;70.60
71082;SHT31;58740;50.672;18.690;2022-09-09T08:01:47;21.06;70.45
71082;SHT31;58740;50.672;18.690;2022-09-09T08:04:22;21.12;70.79
71082;SHT31;58740;50.672;18.690;2022-09-09T08:06:53;21.17;69.90
71082;SHT31;58740;50.672;18.690;2022-09-09T08:09:25;21.20;69.51
71082;SHT31;58740;50.672;18.690;2022-09-09T08:11:56;21.23;69.05
71082;SHT31;58740;50.672;18.690;2022-09-09T08:14:25;21.27;68.47
71082;SHT31;58740;50.672;18.690;2022-09-09T08:16:53;21.32;68.27
71082;SHT31;58740;50.672;18.690;2022-09-09T08:19:21;21.33;68.14
71082;SHT31;58740;50.672;18.690;2022-09-09T08:21:49;21.37;68.31
71082;SHT31;58740;50.672;18.690;2022-09-09T08:24:17;21.43;68.52
71082;SHT31;58740;50.672;18.690;2022-09-09T08:26:47;21.49;68.33
71082;SHT31;58740;50.672;18.690;2022-09-09T08:29:16;21.50;67.51
71082;SHT31;58740;50.672;18.690;2022-09-09T08:31:46;21.48;67.13
71082;SHT31;58740;50.672;18.690;2022-09-09T08:34:17;21.44;66.49
71082;SHT31;58740;50.672;18.690;2022-09-09T08:36:48;21.37;67.05
71082;SHT31;58740;50.672;18.690;2022-09-09T08:39:19;21.37;67.32
71082;SHT31;58740;50.672;18.690;2022-09-09T08:44:58;21.34;67.83
71082;SHT31;58740;50.672;18.690;2022-09-09T08:50:52;21.29;67.99
71082;SHT31;58740;50.672;18.690;2022-09-09T08:56:09;21.28;67.58
71082;SHT31;58740;50.672;18.690;2022-09-09T08:58:45;21.31;67.66
71082;SHT31;58740;50.672;18.690;2022-09-09T09:07:24;21.50;67.96
71082;SHT31;58740;50.672;18.690;2022-09-09T09:13:12;21.48;67.69
71082;SHT31;58740;50.672;18.690;2022-09-09T09:15:44;21.44;67.60
71082;SHT31;58740;50.672;18.690;2022-09-09T09:18:19;21.41;67.71
71082;SHT31;58740;50.672;18.690;2022-09-09T09:20:50;21.40;67.17
71082;SHT31;58740;50.672;18.690;2022-09-09T09:23:52;21.39;67.23
71082;SHT31;58740;50.672;18.690;2022-09-09T09:26:29;21.36;67.25
71082;SHT31;58740;50.672;18.690;2022-09-09T09:29:12;21.36;67.13
71082;SHT31;58740;50.672;18.690;2022-09-09T09:31:45;21.32;66.48
71082;SHT31;58740;50.672;18.690;2022-09-09T09:34:22;21.27;66.64
71082;SHT31;58740;50.672;18.690;2022-09-09T09:36:55;21.25;67.24
71082;SHT31;58740;50.672;18.690;2022-09-09T09:39:29;21.24;66.89
71082;SHT31;58740;50.672;18.690;2022-09-09T09:42:23;21.24;67.13
71082;SHT31;58740;50.672;18.690;2022-09-09T09:44:52;21.23;66.76
71082;SHT31;58740;50.672;18.690;2022-09-09T09:47:20;21.21;67.13
71082;SHT31;58740;50.672;18.690;2022-09-09T09:49:51;21.18;67.16
71082;SHT31;58740;50.672;18.690;2022-09-09T09:52:27;21.17;67.21
71082;SHT31;58740;50.672;18.690;2022-09-09T09:54:58;21.17;66.58
71082;SHT31;58740;50.672;18.690;2022-09-09T09:57:33;21.17;67.05
71082;SHT31;58740;50.672;18.690;2022-09-09T10:00:16;21.19;67.21
71082;SHT31;58740;50.672;18.690;2022-09-09T10:02:48;21.22;67.11
71082;SHT31;58740;50.672;18.690;2022-09-09T10:05:20;21.27;67.08
71082;SHT31;58740;50.672;18.690;2022-09-09T10:08:00;21.34;67.06
71082;SHT31;58740;50.672;18.690;2022-09-09T10:13:25;21.38;65.74
71082;SHT31;58740;50.672;18.690;2022-09-09T10:33:41;21.39;66.10
71082;SHT31;58740;50.672;18.690;2022-09-09T10:36:25;21.45;65.85
71082;SHT31;58740;50.672;18.690;2022-09-09T10:39:13;21.50;65.77
71082;SHT31;58740;50.672;18.690;2022-09-09T10:57:31;21.61;64.28
71082;SHT31;58740;50.672;18.690;2022-09-09T11:00:10;21.59;63.88
71082;SHT31;58740;50.672;18.690;2022-09-09T11:02:56;21.58;63.49
71082;SHT31;58740;50.672;18.690;2022-09-09T11:08:19;21.52;63.01
71082;SHT31;58740;50.672;18.690;2022-09-09T11:13:59;21.43;63.09
71082;SHT31;58740;50.672;18.690;2022-09-09T11:19:26;21.38;63.08
71082;SHT31;58740;50.672;18.690;2022-09-09T11:33:37;21.54;63.25
71082;SHT31;58740;50.672;18.690;2022-09-09T11:36:52;21.58;63.17
71082;SHT31;58740;50.672;18.690;2022-09-09T11:39:48;21.61;63.08
71082;SHT31;58740;50.672;18.690;2022-09-09T11:43:02;21.63;63.34
71082;SHT31;58740;50.672;18.690;2022-09-09T11:45:54;21.66;63.86
71082;SHT31;58740;50.672;18.690;2022-09-09T11:48:37;21.74;63.36
71082;SHT31;58740;50.672;18.690;2022-09-09T11:51:24;21.81;61.32
71082;SHT31;58740;50.672;18.690;2022-09-09T11:56:27;21.94;61.52
71082;SHT31;58740;50.672;18.690;2022-09-09T11:59:02;22.00;61.26
71082;SHT31;58740;50.672;18.690;2022-09-09T12:17:19;21.90;60.44
71082;SHT31;58740;50.672;18.690;2022-09-09T12:23:08;21.79;60.71
71082;SHT31;58740;50.672;18.690;2022-09-09T12:26:01;21.76;59.99
71082;SHT31;58740;50.672;18.690;2022-09-09T12:32:28;21.74;60.02
71082;SHT31;58740;50.672;18.690;2022-09-09T12:34:53;21.79;60.48
71082;SHT31;58740;50.672;18.690;2022-09-09T12:40:26;21.89;60.06
71082;SHT31;58740;50.672;18.690;2022-09-09T12:42:59;21.91;59.97
71082;SHT31;58740;50.672;18.690;2022-09-09T12:45:29;21.91;59.83
71082;SHT31;58740;50.672;18.690;2022-09-09T12:48:19;21.92;58.90
71082;SHT31;58740;50.672;18.690;2022-09-09T12:50:48;21.88;57.96
71082;SHT31;58740;50.672;18.690;2022-09-09T12:53:27;21.86;57.85
71082;SHT31;58740;50.672;18.690;2022-09-09T12:56:03;21.84;58.21
71082;SHT31;58740;50.672;18.690;2022-09-09T12:58:38;21.85;58.22
71082;SHT31;58740;50.672;18.690;2022-09-09T13:01:17;21.84;57.05
71082;SHT31;58740;50.672;18.690;2022-09-09T13:03:53;21.82;57.63
71082;SHT31;58740;50.672;18.690;2022-09-09T13:06:23;21.84;57.54
71082;SHT31;58740;50.672;18.690;2022-09-09T13:08:57;21.89;57.00
71082;SHT31;58740;50.672;18.690;2022-09-09T13:11:31;21.91;56.86
71082;SHT31;58740;50.672;18.690;2022-09-09T13:14:16;21.94;56.82
71082;SHT31;58740;50.672;18.690;2022-09-09T13:16:59;21.95;56.24
71082;SHT31;58740;50.672;18.690;2022-09-09T13:19:32;21.95;56.64
71082;SHT31;58740;50.672;18.690;2022-09-09T13:22:12;21.93;55.90
71082;SHT31;58740;50.672;18.690;2022-09-09T13:24:42;21.92;55.93
71082;SHT31;58740;50.672;18.690;2022-09-09T13:27:27;21.92;55.60
71082;SHT31;58740;50.672;18.690;2022-09-09T13:30:01;21.93;56.09
71082;SHT31;58740;50.672;18.690;2022-09-09T13:33:02;21.95;56.68
71082;SHT31;58740;50.672;18.690;2022-09-09T13:35:49;21.96;56.18
71082;SHT31;58740;50.672;18.690;2022-09-09T13:38:23;21.93;55.21
71082;SHT31;58740;50.672;18.690;2022-09-09T13:40:55;21.88;54.93
71082;SHT31;58740;50.672;18.690;2022-09-09T13:43:26;21.85;55.41
71082;SHT31;58740;50.672;18.690;2022-09-09T13:45:58;21.80;56.01
71082;SHT31;58740;50.672;18.690;2022-09-09T13:48:29;21.77;56.50
71082;SHT31;58740;50.672;18.690;2022-09-09T13:51:00;21.75;56.51
71082;SHT31;58740;50.672;18.690;2022-09-09T13:53:32;21.76;57.43
71082;SHT31;58740;50.672;18.690;2022-09-09T13:56:00;21.77;56.67
71082;SHT31;58740;50.672;18.690;2022-09-09T13:58:28;21.77;55.93
71082;SHT31;58740;50.672;18.690;2022-09-09T14:00:56;21.78;55.73
71082;SHT31;58740;50.672;18.690;2022-09-09T14:03:24;21.80;55.48
71082;SHT31;58740;50.672;18.690;2022-09-09T14:05:52;21.79;54.66
71082;SHT31;58740;50.672;18.690;2022-09-09T14:08:22;21.77;54.40
71082;SHT31;58740;50.672;18.690;2022-09-09T14:10:53;21.75;55.00
71082;SHT31;58740;50.672;18.690;2022-09-09T14:13:23;21.74;54.95
71082;SHT31;58740;50.672;18.690;2022-09-09T14:15:50;21.74;55.38
71082;SHT31;58740;50.672;18.690;2022-09-09T14:18:18;21.74;55.76
71082;SHT31;58740;50.672;18.690;2022-09-09T14:20:45;21.72;55.90
71082;SHT31;58740;50.672;18.690;2022-09-09T14:23:13;21.71;55.42
71082;SHT31;58740;50.672;18.690;2022-09-09T14:25:43;21.69;55.01
71082;SHT31;58740;50.672;18.690;2022-09-09T14:28:11;21.68;54.57
71082;SHT31;58740;50.672;18.690;2022-09-09T14:30:41;21.67;54.93
71082;SHT31;58740;50.672;18.690;2022-09-09T14:33:13;21.66;55.76
71082;SHT31;58740;50.672;18.690;2022-09-09T14:35:43;21.65;54.70
71082;SHT31;58740;50.672;18.690;2022-09-09T14:38:11;21.65;54.39
71082;SHT31;58740;50.672;18.690;2022-09-09T14:40:45;21.65;54.99
71082;SHT31;58740;50.672;18.690;2022-09-09T14:43:14;21.67;55.43
71082;SHT31;58740;50.672;18.690;2022-09-09T14:45:42;21.66;55.14
71082;SHT31;58740;50.672;18.690;2022-09-09T14:48:10;21.69;55.00
71082;SHT31;58740;50.672;18.690;2022-09-09T14:50:38;21.71;54.80
71082;SHT31;58740;50.672;18.690;2022-09-09T14:53:07;21.74;55.32
71082;SHT31;58740;50.672;18.690;2022-09-09T14:55:37;21.75;55.01
71082;SHT31;58740;50.672;18.690;2022-09-09T14:58:05;21.77;54.90
71082;SHT31;58740;50.672;18.690;2022-09-09T15:00:33;21.77;55.29
71082;SHT31;58740;50.672;18.690;2022-09-09T15:03:01;21.77;54.79
71082;SHT31;58740;50.672;18.690;2022-09-09T15:05:29;21.75;54.65
71082;SHT31;58740;50.672;18.690;2022-09-09T15:07:57;21.75;54.88
71082;SHT31;58740;50.672;18.690;2022-09-09T15:10:25;21.73;54.80
71082;SHT31;58740;50.672;18.690;2022-09-09T15:12:53;21.73;55.02
71082;SHT31;58740;50.672;18.690;2022-09-09T15:15:21;21.72;55.47
71082;SHT31;58740;50.672;18.690;2022-09-09T15:17:48;21.70;55.35
71082;SHT31;58740;50.672;18.690;2022-09-09T15:20:16;21.67;55.32
71082;SHT31;58740;50.672;18.690;2022-09-09T15:22:44;21.67;56.25
71082;SHT31;58740;50.672;18.690;2022-09-09T15:25:11;21.64;56.38
71082;SHT31;58740;50.672;18.690;2022-09-09T15:27:39;21.62;56.57
71082;SHT31;58740;50.672;18.690;2022-09-09T15:30:07;21.58;56.68
71082;SHT31;58740;50.672;18.690;2022-09-09T15:32:36;21.57;56.77
71082;SHT31;58740;50.672;18.690;2022-09-09T15:35:03;21.55;56.98
71082;SHT31;58740;50.672;18.690;2022-09-09T15:37:32;21.53;56.88
71082;SHT31;58740;50.672;18.690;2022-09-09T15:39:59;21.50;57.56
71082;SHT31;58740;50.672;18.690;2022-09-09T15:42:28;21.47;56.99
71082;SHT31;58740;50.672;18.690;2022-09-09T15:44:57;21.45;57.50
71082;SHT31;58740;50.672;18.690;2022-09-09T15:47:25;21.43;57.69
71082;SHT31;58740;50.672;18.690;2022-09-09T15:49:54;21.40;58.09
71082;SHT31;58740;50.672;18.690;2022-09-09T15:52:21;21.38;57.83
71082;SHT31;58740;50.672;18.690;2022-09-09T15:54:49;21.36;57.65
71082;SHT31;58740;50.672;18.690;2022-09-09T15:57:16;21.35;57.79
71082;SHT31;58740;50.672;18.690;2022-09-09T15:59:44;21.32;58.40
71082;SHT31;58740;50.672;18.690;2022-09-09T16:02:12;21.30;58.33
71082;SHT31;58740;50.672;18.690;2022-09-09T16:04:40;21.27;58.66
71082;SHT31;58740;50.672;18.690;2022-09-09T16:07:07;21.24;59.11
71082;SHT31;58740;50.672;18.690;2022-09-09T16:09:35;21.20;58.87
71082;SHT31;58740;50.672;18.690;2022-09-09T16:12:04;21.18;59.44
71082;SHT31;58740;50.672;18.690;2022-09-09T16:14:37;21.14;59.23
71082;SHT31;58740;50.672;18.690;2022-09-09T16:17:06;21.11;59.93
71082;SHT31;58740;50.672;18.690;2022-09-09T16:19:33;21.07;60.01
71082;SHT31;58740;50.672;18.690;2022-09-09T16:22:02;21.05;59.26
71082;SHT31;58740;50.672;18.690;2022-09-09T16:24:31;21.04;59.33
71082;SHT31;58740;50.672;18.690;2022-09-09T16:26:59;21.03;59.72
71082;SHT31;58740;50.672;18.690;2022-09-09T16:29:27;21.02;60.00
71082;SHT31;58740;50.672;18.690;2022-09-09T16:31:55;21.00;59.89
71082;SHT31;58740;50.672;18.690;2022-09-09T16:34:29;20.98;60.11
71082;SHT31;58740;50.672;18.690;2022-09-09T16:36:57;20.96;59.71
71082;SHT31;58740;50.672;18.690;2022-09-09T16:39:24;20.94;59.79
71082;SHT31;58740;50.672;18.690;2022-09-09T16:41:52;20.92;59.95
71082;SHT31;58740;50.672;18.690;2022-09-09T16:44:19;20.90;60.79
71082;SHT31;58740;50.672;18.690;2022-09-09T16:46:48;20.86;61.61
71082;SHT31;58740;50.672;18.690;2022-09-09T16:49:24;20.81;62.30
71082;SHT31;58740;50.672;18.690;2022-09-09T16:51:51;20.77;62.72
71082;SHT31;58740;50.672;18.690;2022-09-09T16:54:22;20.74;63.24
71082;SHT31;58740;50.672;18.690;2022-09-09T16:56:54;20.71;63.17
71082;SHT31;58740;50.672;18.690;2022-09-09T16:59:22;20.68;63.30
71082;SHT31;58740;50.672;18.690;2022-09-09T17:01:51;20.64;63.58
71082;SHT31;58740;50.672;18.690;2022-09-09T17:04:25;20.59;63.69
71082;SHT31;58740;50.672;18.690;2022-09-09T17:06:55;20.51;63.90
71082;SHT31;58740;50.672;18.690;2022-09-09T17:09:24;20.45;64.60
71082;SHT31;58740;50.672;18.690;2022-09-09T17:11:56;20.39;64.68
71082;SHT31;58740;50.672;18.690;2022-09-09T17:14:24;20.33;65.04
71082;SHT31;58740;50.672;18.690;2022-09-09T17:16:52;20.28;65.37
71082;SHT31;58740;50.672;18.690;2022-09-09T17:19:19;20.24;65.37
71082;SHT31;58740;50.672;18.690;2022-09-09T17:21:47;20.19;65.45
71082;SHT31;58740;50.672;18.690;2022-09-09T17:24:35;20.15;65.95
71082;SHT31;58740;50.672;18.690;2022-09-09T17:27:06;20.11;66.01
71082;SHT31;58740;50.672;18.690;2022-09-09T17:29:34;20.06;66.35
71082;SHT31;58740;50.672;18.690;2022-09-09T17:32:03;20.03;66.37
71082;SHT31;58740;50.672;18.690;2022-09-09T17:34:33;20.01;66.59
71082;SHT31;58740;50.672;18.690;2022-09-09T17:37:01;19.97;66.93
71082;SHT31;58740;50.672;18.690;2022-09-09T17:39:33;19.94;67.10
71082;SHT31;58740;50.672;18.690;2022-09-09T17:42:01;19.93;67.30
71082;SHT31;58740;50.672;18.690;2022-09-09T17:44:28;19.91;67.48
71082;SHT31;58740;50.672;18.690;2022-09-09T17:46:59;19.90;67.69
71082;SHT31;58740;50.672;18.690;2022-09-09T17:49:27;19.88;67.76
71082;SHT31;58740;50.672;18.690;2022-09-09T17:51:55;19.85;68.00
71082;SHT31;58740;50.672;18.690;2022-09-09T17:54:23;19.84;68.20
71082;SHT31;58740;50.672;18.690;2022-09-09T17:56:51;19.82;68.31
71082;SHT31;58740;50.672;18.690;2022-09-09T17:59:19;19.78;68.51
71082;SHT31;58740;50.672;18.690;2022-09-09T18:01:47;19.73;68.87
71082;SHT31;58740;50.672;18.690;2022-09-09T18:04:17;19.70;69.10
71082;SHT31;58740;50.672;18.690;2022-09-09T18:06:50;19.68;69.13
71082;SHT31;58740;50.672;18.690;2022-09-09T18:09:21;19.67;69.11
71082;SHT31;58740;50.672;18.690;2022-09-09T18:11:52;19.68;68.87
71082;SHT31;58740;50.672;18.690;2022-09-09T18:14:28;19.68;69.04
71082;SHT31;58740;50.672;18.690;2022-09-09T18:16:59;19.66;69.33
71082;SHT31;58740;50.672;18.690;2022-09-09T18:19:30;19.62;69.38
71082;SHT31;58740;50.672;18.690;2022-09-09T18:21:59;19.58;69.53
71082;SHT31;58740;50.672;18.690;2022-09-09T18:24:30;19.58;69.80